Time;durP1;ratioP1;P1;durP2;ratioP2;P2;SDS_P1;SDS_P2;PMS_P1;PMS_P2;Temp;Humidity;BMP_temperature;BMP_pressure;BME280_temperature;BME280_humidity;BME280_pressure;Samples;Min_cycle;Max_cycle;Signal;HPM_P1;HPM_P2
2022/06/10 00:01:26;;;;;;;6.33;6.03;;;;;;;20.80;100.00;98545.41;5090862;28;20290;-67
2022/06/10 00:03:53;;;;;;;6.60;6.10;;;;;;;20.79;100.00;98546.34;5089932;28;20651;-68
2022/06/10 00:06:20;;;;;;;6.87;6.47;;;;;;;20.86;100.00;98542.28;5092832;28;20199;-67
2022/06/10 00:08:49;;;;;;;6.87;6.47;;;;;;;20.86;100.00;98544.88;5093009;28;20211;-67
2022/06/10 00:11:16;;;;;;;6.37;5.93;;;;;;;20.86;100.00;98544.88;5093034;28;20207;-67
2022/06/10 00:13:46;;;;;;;7.40;6.90;;;;;;;20.81;100.00;98547.03;5092127;28;20197;-69
2022/06/10 00:16:14;;;;;;;6.33;6.03;;;;;;;20.75;100.00;98558.00;5092982;28;20686;-68
2022/06/10 00:18:42;;;;;;;6.80;6.50;;;;;;;20.66;100.00;98543.16;5092328;28;20237;-69
2022/06/10 00:21:11;;;;;;;6.33;6.03;;;;;;;20.65;100.00;98546.69;5092595;28;20215;-69
2022/06/10 00:23:39;;;;;;;6.43;6.13;;;;;;;20.63;100.00;98543.41;5091305;28;20690;-69
2022/06/10 00:26:07;;;;;;;7.33;6.83;;;;;;;20.68;100.00;98551.66;5092926;28;20200;-69
2022/06/10 00:28:34;;;;;;;7.10;6.60;;;;;;;20.74;100.00;98555.53;5092568;28;20575;-70
2022/06/10 00:31:01;;;;;;;7.70;7.20;;;;;;;20.74;100.00;98556.31;5092392;28;20195;-69
2022/06/10 00:33:29;;;;;;;6.57;6.17;;;;;;;20.76;100.00;98558.81;5092162;28;20207;-69
2022/06/10 00:35:57;;;;;;;7.30;6.80;;;;;;;20.78;100.00;98562.94;5092395;28;20199;-68
2022/06/10 00:38:24;;;;;;;7.33;6.63;;;;;;;20.71;100.00;98563.59;5092482;28;20738;-69
2022/06/10 00:40:54;;;;;;;6.37;6.07;;;;;;;20.69;100.00;98563.72;5091283;28;20225;-69
2022/06/10 00:43:25;;;;;;;7.30;6.93;;;;;;;20.67;100.00;98560.44;5090998;28;20221;-69
2022/06/10 00:45:56;;;;;;;7.20;6.80;;;;;;;20.66;100.00;98563.97;5092203;28;20206;-68
2022/06/10 00:48:29;;;;;;;7.37;7.03;;;;;;;20.65;100.00;98557.13;5092283;28;20195;-69
2022/06/10 00:51:00;;;;;;;6.80;6.30;;;;;;;20.59;100.00;98557.63;5091916;28;20620;-68
2022/06/10 00:53:32;;;;;;;7.10;6.60;;;;;;;20.55;100.00;98553.63;5089457;28;20593;-68
2022/06/10 00:56:01;;;;;;;8.50;7.77;;;;;;;20.49;100.00;98543.75;5089862;28;20203;-69
2022/06/10 00:58:36;;;;;;;8.03;7.40;;;;;;;20.60;100.00;98554.09;5089882;28;20192;-69
2022/06/10 01:01:04;;;;;;;7.70;7.20;;;;;;;20.62;100.00;98557.38;5091880;28;20215;-69
2022/06/10 01:03:31;;;;;;;7.50;7.10;;;;;;;20.68;100.00;98551.66;5092104;28;20731;-69
2022/06/10 01:06:00;;;;;;;8.03;7.63;;;;;;;20.63;100.00;98559.03;5091006;28;20206;-69
2022/06/10 01:08:27;;;;;;;8.07;7.57;;;;;;;20.62;100.00;98546.97;5090696;28;20205;-68
2022/06/10 01:11:06;;;;;;;8.00;7.50;;;;;;;20.62;100.00;98546.97;5090585;28;20193;-68
2022/06/10 01:13:43;;;;;;;9.27;8.47;;;;;;;20.60;100.00;98532.44;5091605;28;20195;-68
2022/06/10 01:16:20;;;;;;;7.53;7.03;;;;;;;20.56;100.00;98526.66;5091240;28;20210;-70
2022/06/10 01:18:54;;;;;;;7.53;7.03;;;;;;;20.67;100.00;98544.81;5091181;28;20207;-69
2022/06/10 01:22:02;;;;;;;8.10;7.60;;;;;;;20.68;100.00;98545.63;5090904;28;20211;-69
2022/06/10 01:24:49;;;;;;;7.20;6.80;;;;;;;20.72;100.00;98536.59;5028018;28;20636;-69
2022/06/10 01:27:54;;;;;;;8.37;7.70;;;;;;;20.65;100.00;98540.66;5089850;28;20206;-69
2022/06/10 01:30:30;;;;;;;7.33;6.70;;;;;;;20.60;100.00;98533.25;5082855;28;20203;-69
2022/06/10 01:33:13;;;;;;;7.53;7.13;;;;;;;20.71;100.00;98551.38;5091057;28;20203;-69
2022/06/10 01:35:46;;;;;;;7.80;7.30;;;;;;;20.72;100.00;98553.03;5087113;28;20199;-69
2022/06/10 01:38:24;;;;;;;7.47;6.87;;;;;;;20.74;100.00;98560.75;5091119;28;20199;-69
2022/06/10 01:41:00;;;;;;;6.90;6.60;;;;;;;20.78;100.00;98568.16;5091162;28;20219;-69
2022/06/10 01:43:38;;;;;;;7.63;7.23;;;;;;;20.82;100.00;98566.09;5090237;28;20195;-69
2022/06/10 01:46:12;;;;;;;8.10;7.47;;;;;;;20.85;100.00;98564.06;5090411;28;20194;-69
2022/06/10 01:48:49;;;;;;;8.30;7.70;;;;;;;20.90;100.00;98567.09;5091104;28;20191;-69
2022/06/10 01:51:22;;;;;;;7.60;7.13;;;;;;;20.88;100.00;98568.19;5090682;28;20196;-69
2022/06/10 01:53:55;;;;;;;7.63;7.17;;;;;;;20.81;100.00;98567.06;5089833;28;20333;-68
2022/06/10 01:56:27;;;;;;;9.47;7.63;;;;;;;20.70;100.00;98561.94;5089453;28;20697;-68
2022/06/10 01:58:59;;;;;;;9.23;8.63;;;;;;;20.61;100.00;98573.16;5091113;28;20268;-68
2022/06/10 02:01:30;;;;;;;8.73;8.13;;;;;;;20.37;100.00;98547.38;5090633;28;20207;-69
2022/06/10 02:04:04;;;;;;;8.10;7.63;;;;;;;20.45;100.00;98570.19;5091232;28;20651;-69
2022/06/10 02:06:37;;;;;;;8.60;8.10;;;;;;;20.32;100.00;98559.97;5090153;28;20222;-69
2022/06/10 02:09:08;;;;;;;9.63;8.77;;;;;;;20.17;100.00;98541.19;5090932;28;20199;-69
2022/06/10 02:11:38;;;;;;;9.23;8.53;;;;;;;20.27;100.00;98547.31;5090719;28;20293;-70
2022/06/10 02:14:10;;;;;;;8.80;8.30;;;;;;;20.39;100.00;98556.69;5081937;28;20203;-69
2022/06/10 02:16:41;;;;;;;8.60;8.00;;;;;;;20.40;100.00;98554.94;5089533;28;20207;-69
2022/06/10 02:19:17;;;;;;;11.63;8.40;;;;;;;20.36;100.00;98566.53;5090783;28;20222;-69
2022/06/10 02:21:48;;;;;;;9.07;8.37;;;;;;;20.32;100.00;98567.78;5090649;28;20217;-69
2022/06/10 02:24:19;;;;;;;9.70;9.00;;;;;;;20.26;100.00;98570.81;5090393;28;20229;-69
2022/06/10 02:26:47;;;;;;;8.43;8.00;;;;;;;20.28;100.00;98572.41;5088743;28;20202;-69
2022/06/10 02:29:18;;;;;;;8.87;8.27;;;;;;;20.28;100.00;98568.97;5090775;28;20560;-68
2022/06/10 02:31:51;;;;;;;9.17;8.33;;;;;;;20.26;100.00;98565.63;5090378;28;20191;-69
2022/06/10 02:34:19;;;;;;;9.80;9.00;;;;;;;20.25;100.00;98569.19;5090451;28;20203;-69
2022/06/10 02:36:54;;;;;;;9.27;8.57;;;;;;;20.23;100.00;98568.47;5089434;28;20209;-69
2022/06/10 02:39:26;;;;;;;10.77;9.60;;;;;;;20.21;100.00;98578.19;5090742;28;20635;-69
2022/06/10 02:42:04;;;;;;;9.77;9.07;;;;;;;20.24;100.00;98577.94;5090301;28;20222;-68
2022/06/10 02:44:40;;;;;;;9.87;9.23;;;;;;;20.26;100.00;98576.03;5089985;28;20582;-69
2022/06/10 02:47:14;;;;;;;9.63;9.03;;;;;;;20.31;100.00;98584.34;5089998;28;20213;-69
2022/06/10 02:49:42;;;;;;;9.87;9.10;;;;;;;20.30;100.00;98588.72;5090360;28;20203;-68
2022/06/10 02:52:12;;;;;;;10.03;9.37;;;;;;;20.28;100.00;98590.63;5089962;28;20199;-69
2022/06/10 02:54:41;;;;;;;11.07;9.93;;;;;;;20.26;100.00;98596.84;5086650;28;20221;-69
2022/06/10 02:57:13;;;;;;;10.67;9.67;;;;;;;20.30;100.00;98598.28;5086397;28;20318;-69
2022/06/10 03:02:38;;;;;;;10.27;9.50;;;;;;;20.30;100.00;98611.31;5086961;28;20210;-69
2022/06/10 03:05:31;;;;;;;11.17;10.30;;;;;;;20.34;100.00;98615.31;5085034;28;20201;-69
2022/06/10 03:08:11;;;;;;;10.13;9.43;;;;;;;20.35;100.00;98620.41;5093324;28;20203;-69
2022/06/10 03:10:47;;;;;;;11.03;9.93;;;;;;;20.33;100.00;98619.69;5094206;28;20282;-69
2022/06/10 03:13:29;;;;;;;10.53;9.60;;;;;;;20.32;100.00;98619.84;5093954;28;20203;-69
2022/06/10 03:16:14;;;;;;;11.57;10.60;;;;;;;20.30;100.00;98614.75;5092522;28;20196;-69
2022/06/10 03:18:52;;;;;;;11.37;10.43;;;;;;;20.28;100.00;98605.41;5094144;28;20207;-69
2022/06/10 03:21:29;;;;;;;11.33;10.43;;;;;;;20.32;100.00;98622.44;5092931;28;20326;-69
2022/06/10 03:24:09;;;;;;;11.23;9.50;;;;;;;20.34;100.00;98620.53;5093538;28;20260;-69
2022/06/10 03:26:45;;;;;;;11.07;10.27;;;;;;;20.37;100.00;98631.50;5093513;28;20286;-69
2022/06/10 03:29:19;;;;;;;13.10;11.83;;;;;;;20.37;100.00;98630.69;5093834;28;20208;-69
2022/06/10 03:31:52;;;;;;;11.50;10.50;;;;;;;20.41;100.00;98634.69;5093398;28;20554;-69
2022/06/10 03:34:25;;;;;;;11.70;10.60;;;;;;;20.47;100.00;98635.94;5093582;28;20203;-69
2022/06/10 03:36:58;;;;;;;11.93;10.83;;;;;;;20.51;100.00;98632.97;5093729;28;20202;-69
2022/06/10 03:39:26;;;;;;;12.13;11.03;;;;;;;20.54;100.00;98637.09;5093466;28;20212;-69
2022/06/10 03:42:00;;;;;;;11.67;10.57;;;;;;;20.61;100.00;98644.28;5093693;28;20219;-69
2022/06/10 03:44:30;;;;;;;12.50;11.40;;;;;;;20.60;100.00;98647.84;5093208;28;20202;-69
2022/06/10 03:46:58;;;;;;;13.47;12.17;;;;;;;20.59;100.00;98648.78;5092783;28;20198;-69
2022/06/10 03:49:29;;;;;;;11.83;10.90;;;;;;;20.63;100.00;98655.41;5092608;28;20205;-69
2022/06/10 03:51:59;;;;;;;11.93;10.83;;;;;;;20.59;100.00;98646.19;5092718;28;20686;-69
2022/06/10 03:54:26;;;;;;;12.33;11.33;;;;;;;20.57;100.00;98648.09;5093248;28;20199;-69
2022/06/10 03:56:53;;;;;;;12.30;11.10;;;;;;;20.55;100.00;98649.19;5092836;28;20230;-69
2022/06/10 03:59:21;;;;;;;11.10;10.30;;;;;;;20.58;100.00;98654.94;5092815;28;20199;-69
2022/06/10 04:01:48;;;;;;;12.10;11.17;;;;;;;20.63;100.00;98663.22;5093271;28;20671;-69
2022/06/10 04:04:15;;;;;;;13.63;12.23;;;;;;;20.66;100.00;98662.13;5090092;28;20223;-69
2022/06/10 04:06:41;;;;;;;13.37;12.10;;;;;;;20.65;100.00;98658.69;5092935;28;20203;-69
2022/06/10 04:09:13;;;;;;;12.70;11.63;;;;;;;20.64;100.00;98657.06;5092843;28;20203;-68
2022/06/10 04:11:40;;;;;;;14.00;12.80;;;;;;;20.66;100.00;98652.53;5092141;28;20666;-69
2022/06/10 04:14:06;;;;;;;13.33;12.10;;;;;;;20.66;100.00;98642.13;5089641;28;20203;-69
2022/06/10 04:16:33;;;;;;;12.57;11.33;;;;;;;20.66;100.00;98642.13;5091305;28;20195;-69
2022/06/10 04:19:00;;;;;;;13.43;12.33;;;;;;;20.61;100.00;98644.28;5092675;28;20779;-69
2022/06/10 04:21:27;;;;;;;13.03;12.03;;;;;;;20.67;100.00;98648.16;5092474;28;20214;-69
2022/06/10 04:23:54;;;;;;;13.97;12.47;;;;;;;20.70;100.00;98648.72;5090970;28;20203;-69
2022/06/10 04:26:22;;;;;;;12.17;11.27;;;;;;;20.74;100.00;98655.31;5091123;28;20575;-69
2022/06/10 04:28:49;;;;;;;13.40;12.17;;;;;;;20.76;100.00;98650.81;5091663;28;20198;-69
2022/06/10 04:31:16;;;;;;;12.90;11.40;;;;;;;20.79;100.00;98642.75;5092673;28;20224;-68
2022/06/10 04:33:43;;;;;;;12.87;11.57;;;;;;;20.81;100.00;98646.03;5090913;28;20195;-68
2022/06/10 04:36:10;;;;;;;12.47;11.47;;;;;;;20.77;100.00;98651.66;5092286;28;20204;-68
2022/06/10 04:38:37;;;;;;;11.70;10.80;;;;;;;20.88;100.00;98647.19;5092408;28;20311;-66
2022/06/10 04:41:06;;;;;;;11.77;10.73;;;;;;;20.92;100.00;98653.78;5092114;28;20216;-68
2022/06/10 04:43:35;;;;;;;11.47;10.53;;;;;;;20.81;100.00;98659.06;5091440;28;20671;-68
2022/06/10 04:46:03;;;;;;;10.93;9.93;;;;;;;20.62;100.00;98640.72;5089596;28;20199;-67
2022/06/10 04:48:30;;;;;;;10.20;9.40;;;;;;;20.64;100.00;98674.47;5090017;28;20214;-67
2022/06/10 04:50:57;;;;;;;10.43;9.67;;;;;;;20.54;100.00;98663.97;5091797;28;20207;-66
2022/06/10 04:53:24;;;;;;;11.07;10.23;;;;;;;20.50;100.00;98656.53;5090159;28;20210;-68
2022/06/10 04:55:50;;;;;;;10.43;9.63;;;;;;;20.56;100.00;98662.06;5091721;28;20693;-67
2022/06/10 04:58:17;;;;;;;10.33;9.63;;;;;;;20.66;100.00;98656.91;5091918;28;20206;-69
2022/06/10 05:00:49;;;;;;;10.30;9.57;;;;;;;20.66;100.00;98662.94;5091425;28;20211;-69
2022/06/10 05:03:17;;;;;;;8.97;8.47;;;;;;;20.46;100.00;98666.38;5091702;28;20226;-66
2022/06/10 05:05:44;;;;;;;10.40;9.70;;;;;;;20.36;100.00;98670.66;5091775;28;20663;-65
2022/06/10 05:08:14;;;;;;;9.53;8.93;;;;;;;20.42;100.00;98665.78;5091536;28;20195;-67
2022/06/10 05:10:41;;;;;;;10.37;9.67;;;;;;;20.56;100.00;98675.06;5091468;28;20195;-67
2022/06/10 05:13:08;;;;;;;10.10;9.50;;;;;;;20.63;100.00;98672.78;5091329;28;20210;-68
2022/06/10 05:15:35;;;;;;;10.23;9.53;;;;;;;20.68;100.00;98684.47;5091601;28;20224;-66
2022/06/10 05:18:04;;;;;;;10.20;9.37;;;;;;;20.79;100.00;98678.38;5089588;28;20219;-68
2022/06/10 05:20:34;;;;;;;10.20;9.60;;;;;;;20.89;100.00;98679.28;5091154;28;20202;-68
2022/06/10 05:23:02;;;;;;;10.87;9.83;;;;;;;21.00;100.00;98683.59;5090806;28;20697;-68
2022/06/10 05:25:29;;;;;;;9.17;8.60;;;;;;;21.08;100.00;98683.75;5087308;28;20223;-68
2022/06/10 05:27:56;;;;;;;9.40;8.80;;;;;;;21.11;100.00;98678.31;5090439;28;20187;-68
2022/06/10 05:30:26;;;;;;;10.20;9.60;;;;;;;21.13;100.00;98684.25;5091277;28;20199;-68
2022/06/10 05:32:53;;;;;;;10.60;9.67;;;;;;;21.18;100.00;98690.72;5086796;28;20215;-68
2022/06/10 05:35:22;;;;;;;10.53;9.47;;;;;;;21.11;100.00;98688.75;5088760;28;20203;-68
2022/06/10 05:37:49;;;;;;;10.60;9.70;;;;;;;21.11;100.00;98683.53;5089063;28;20235;-70
2022/06/10 05:40:17;;;;;;;9.27;8.60;;;;;;;21.31;100.00;98690.50;5085611;28;20196;-69
2022/06/10 05:42:44;;;;;;;9.73;8.83;;;;;;;21.36;100.00;98688.31;5087537;28;20230;-68
2022/06/10 05:45:13;;;;;;;10.10;9.30;;;;;;;21.36;100.00;98683.09;5088929;28;20199;-67
2022/06/10 05:47:42;;;;;;;10.37;9.57;;;;;;;21.25;100.00;98688.41;5087137;28;20222;-67
2022/06/10 05:50:13;;;;;;;9.33;8.60;;;;;;;21.19;100.00;98691.53;5086148;28;20206;-67
2022/06/10 05:52:41;;;;;;;10.10;9.33;;;;;;;21.06;100.00;98690.88;5084700;28;20250;-68
2022/06/10 05:55:10;;;;;;;9.43;8.53;;;;;;;21.14;100.00;98696.28;5088367;28;20207;-66
2022/06/10 05:57:38;;;;;;;9.70;9.00;;;;;;;21.23;100.00;98703.34;5086687;28;20206;-66
2022/06/10 06:00:07;;;;;;;9.77;8.97;;;;;;;21.13;100.00;98707.69;5088479;28;20210;-65
2022/06/10 06:02:34;;;;;;;10.17;9.30;;;;;;;21.18;100.00;98701.13;5088806;28;20598;-65
2022/06/10 06:05:02;;;;;;;10.90;10.07;;;;;;;21.15;100.00;98700.56;5089039;28;20207;-67
2022/06/10 06:07:31;;;;;;;10.90;10.07;;;;;;;21.09;100.00;98693.22;5089932;28;20199;-66
2022/06/10 06:09:59;;;;;;;10.23;9.53;;;;;;;21.13;100.00;98692.06;5089660;28;20207;-65
2022/06/10 06:12:26;;;;;;;10.37;9.50;;;;;;;21.31;100.00;98690.50;5090154;28;20192;-66
2022/06/10 06:14:53;;;;;;;10.13;9.43;;;;;;;21.41;100.00;98691.34;5090143;28;20578;-66
2022/06/10 06:17:21;;;;;;;11.00;10.23;;;;;;;21.46;100.00;98681.34;5087386;28;20202;-66
2022/06/10 06:19:48;;;;;;;10.07;9.17;;;;;;;21.60;100.00;98681.00;5089301;28;20199;-65
2022/06/10 06:22:15;;;;;;;10.17;9.47;;;;;;;21.75;100.00;98679.66;5089486;28;20219;-66
2022/06/10 06:24:42;;;;;;;10.37;9.63;;;;;;;21.89;100.00;98683.69;5089115;28;20227;-66
2022/06/10 06:27:13;;;;;;;10.13;9.53;;;;;;;21.99;100.00;98692.38;5087723;28;20675;-66
2022/06/10 06:29:40;;;;;;;11.57;10.50;;;;;;;22.06;100.00;98697.88;5087931;28;20558;-67
2022/06/10 06:32:08;;;;;;;10.63;9.83;;;;;;;22.11;100.00;98685.25;5090085;28;20564;-66
2022/06/10 06:34:38;;;;;;;11.87;10.80;;;;;;;22.13;100.00;98694.59;5089171;28;20204;-67
2022/06/10 06:37:06;;;;;;;10.57;9.67;;;;;;;22.24;100.00;98702.28;5089307;28;20199;-67
2022/06/10 06:39:35;;;;;;;11.67;10.63;;;;;;;22.30;100.00;98700.91;5088862;28;20266;-67
2022/06/10 06:42:03;;;;;;;10.53;9.73;;;;;;;22.38;100.00;98706.28;5093475;28;20246;-67
2022/06/10 06:44:31;;;;;;;11.33;10.53;;;;;;;22.32;100.00;98699.84;5090829;28;20629;-68
2022/06/10 06:46:58;;;;;;;11.90;10.73;;;;;;;22.34;100.00;98702.28;5092812;28;20256;-67
2022/06/10 06:49:29;;;;;;;10.40;9.70;;;;;;;22.41;100.00;98708.63;5092394;28;20199;-66
2022/06/10 06:51:56;;;;;;;12.20;11.30;;;;;;;22.34;100.00;98707.53;5092693;28;20234;-68
2022/06/10 06:54:24;;;;;;;12.20;11.30;;;;;;;22.35;100.00;98711.78;5092837;28;20199;-67
2022/06/10 06:56:51;;;;;;;12.43;11.33;;;;;;;22.43;100.00;98722.38;5093223;28;20559;-68
2022/06/10 06:59:18;;;;;;;30.03;18.83;;;;;;;22.45;100.00;98728.28;5093162;28;20199;-67
2022/06/10 07:01:46;;;;;;;27.07;18.63;;;;;;;22.56;100.00;98733.38;5092034;28;20651;-68
2022/06/10 07:04:13;;;;;;;13.33;11.93;;;;;;;22.67;100.00;98725.44;5093805;28;20610;-68
2022/06/10 07:06:42;;;;;;;10.20;9.50;;;;;;;22.73;100.00;98724.88;5091068;28;20207;-68
2022/06/10 07:09:09;;;;;;;9.87;9.07;;;;;;;22.77;100.00;98722.81;5091667;28;20218;-65
2022/06/10 07:11:38;;;;;;;12.03;10.93;;;;;;;22.62;100.00;98727.59;5092374;28;20200;-68
2022/06/10 07:14:06;;;;;;;11.10;10.30;;;;;;;22.73;100.00;98717.03;5092680;28;20285;-67
2022/06/10 07:16:33;;;;;;;10.87;10.10;;;;;;;22.85;100.00;98713.28;5093907;28;20200;-67
2022/06/10 07:19:01;;;;;;;11.57;10.47;;;;;;;22.79;100.00;98713.84;5091115;28;20199;-68
2022/06/10 07:21:28;;;;;;;11.80;10.77;;;;;;;22.84;100.00;98716.88;5093263;28;20352;-67
2022/06/10 07:23:56;;;;;;;13.03;12.03;;;;;;;22.59;100.00;98709.56;5092734;28;20230;-67
2022/06/10 07:26:23;;;;;;;12.57;11.43;;;;;;;22.68;100.00;98711.38;5091696;28;20230;-66
2022/06/10 07:28:50;;;;;;;12.53;11.30;;;;;;;22.71;100.00;98716.34;5093047;28;20199;-67
2022/06/10 07:31:18;;;;;;;13.73;12.30;;;;;;;22.61;100.00;98720.72;5092785;28;20199;-67
2022/06/10 07:33:45;;;;;;;11.93;11.00;;;;;;;22.67;100.00;98720.22;5092981;28;20199;-67
2022/06/10 07:36:14;;;;;;;14.43;12.77;;;;;;;22.63;100.00;98717.97;5093350;28;20202;-67
2022/06/10 07:38:42;;;;;;;16.70;11.97;;;;;;;22.72;100.00;98723.22;5093157;28;20564;-67
2022/06/10 07:43:54;;;;;;;11.67;10.77;;;;;;;22.95;100.00;98724.56;5091322;28;20685;-66
2022/06/10 07:46:23;;;;;;;13.07;11.97;;;;;;;23.05;100.00;98729.78;5093693;28;20192;-67
2022/06/10 07:48:51;;;;;;;12.63;11.63;;;;;;;23.14;100.00;98725.47;5093757;28;20199;-68
2022/06/10 07:51:20;;;;;;;12.83;11.63;;;;;;;23.18;99.96;98730.28;5089048;28;20195;-66
2022/06/10 07:53:47;;;;;;;12.80;11.60;;;;;;;23.21;100.00;98731.78;5091185;28;20256;-67
2022/06/10 07:56:15;;;;;;;13.70;12.37;;;;;;;23.32;100.00;98727.25;5090189;28;20213;-67
2022/06/10 07:58:43;;;;;;;13.67;12.43;;;;;;;23.58;98.57;98732.69;5089941;28;20203;-68
2022/06/10 08:01:11;;;;;;;13.67;12.37;;;;;;;23.72;97.38;98729.56;5089075;28;20207;-67
2022/06/10 08:03:39;;;;;;;13.17;12.00;;;;;;;23.84;97.19;98723.19;5091270;28;20227;-67
2022/06/10 08:06:06;;;;;;;12.77;11.67;;;;;;;23.77;96.09;98722.13;5088544;28;20205;-67
2022/06/10 08:08:35;;;;;;;13.03;11.73;;;;;;;23.97;95.08;98723.63;5089701;28;20685;-65
2022/06/10 08:11:02;;;;;;;13.20;12.00;;;;;;;24.01;98.02;98735.47;5089498;28;20204;-66
2022/06/10 08:13:30;;;;;;;13.83;12.47;;;;;;;24.05;94.44;98742.06;5089340;28;20199;-67
2022/06/10 08:15:58;;;;;;;16.00;14.33;;;;;;;24.09;95.92;98728.69;5088395;28;20594;-67
2022/06/10 08:18:30;;;;;;;15.07;13.67;;;;;;;24.24;92.65;98745.56;5088358;28;20207;-67
2022/06/10 08:23:42;;;;;;;13.77;12.87;;;;;;;24.07;91.73;98748.97;5087757;28;20225;-66
2022/06/10 08:26:11;;;;;;;16.47;14.93;;;;;;;24.22;92.58;98755.38;5087128;28;20604;-65
2022/06/10 08:28:41;;;;;;;16.73;15.20;;;;;;;24.22;92.55;98758.00;5086866;28;20335;-67
2022/06/10 08:31:08;;;;;;;16.20;14.60;;;;;;;24.19;92.28;98753.03;5087872;28;20556;-67
2022/06/10 08:33:36;;;;;;;16.43;14.83;;;;;;;24.32;91.85;98758.75;5088403;28;20603;-67
2022/06/10 08:36:04;;;;;;;14.73;13.43;;;;;;;24.28;92.41;98752.97;5086460;28;20231;-68
2022/06/10 08:38:31;;;;;;;16.00;14.60;;;;;;;24.18;92.57;98756.63;5084443;28;20199;-66
2022/06/10 08:41:03;;;;;;;17.00;14.83;;;;;;;24.28;92.01;98754.78;5087511;28;20211;-67
2022/06/10 08:43:39;;;;;;;14.63;13.43;;;;;;;24.44;92.30;98744.47;5088824;28;20215;-68
2022/06/10 08:46:18;;;;;;;14.57;12.97;;;;;;;24.56;91.42;98740.63;5090965;28;20207;-65
2022/06/10 08:49:00;;;;;;;13.73;12.53;;;;;;;24.51;91.79;98737.66;5090847;28;20199;-68
2022/06/10 08:51:31;;;;;;;13.83;12.53;;;;;;;24.71;91.22;98739.13;5087768;28;20199;-67
2022/06/10 08:54:14;;;;;;;13.43;12.33;;;;;;;24.62;90.10;98739.22;5089636;28;20643;-67
2022/06/10 08:56:47;;;;;;;14.63;13.33;;;;;;;24.68;89.09;98736.81;5090484;28;20290;-66
2022/06/10 08:59:24;;;;;;;15.43;14.00;;;;;;;24.96;85.55;98738.38;5089653;28;20199;-65
2022/06/10 09:02:00;;;;;;;16.43;14.83;;;;;;;24.98;87.26;98733.78;5089476;28;20200;-66
2022/06/10 09:04:39;;;;;;;15.67;13.40;;;;;;;25.05;86.06;98726.97;5089749;28;20256;-67
2022/06/10 09:07:12;;;;;;;15.23;13.80;;;;;;;25.33;84.54;98750.44;5089366;28;20276;-67
2022/06/10 09:09:42;;;;;;;14.03;12.93;;;;;;;25.49;84.44;98753.16;5090844;28;20242;-64
2022/06/10 09:12:18;;;;;;;15.30;14.00;;;;;;;25.38;85.69;98750.78;5089868;28;20202;-66
2022/06/10 09:14:46;;;;;;;15.67;14.20;;;;;;;25.38;84.84;98748.16;5089212;28;20579;-66
2022/06/10 09:17:19;;;;;;;15.97;14.40;;;;;;;25.40;86.35;98744.38;5088375;28;20624;-67
2022/06/10 09:19:55;;;;;;;15.27;13.83;;;;;;;25.39;86.13;98745.38;5090505;28;20584;-65
2022/06/10 09:22:28;;;;;;;15.17;13.70;;;;;;;25.67;86.80;98747.84;5091187;28;20215;-66
2022/06/10 09:25:03;;;;;;;15.63;14.13;;;;;;;25.49;83.77;98753.16;5091317;28;20241;-65
2022/06/10 09:27:34;;;;;;;15.57;14.07;;;;;;;25.29;84.86;98734.19;5090224;28;20198;-66
2022/06/10 09:30:03;;;;;;;17.37;14.27;;;;;;;25.29;84.88;98738.59;5087531;28;20206;-66
2022/06/10 09:32:46;;;;;;;16.63;15.13;;;;;;;25.24;86.14;98735.59;5088880;28;20195;-67
2022/06/10 09:35:25;;;;;;;15.73;14.03;;;;;;;25.13;86.60;98733.25;5088245;28;20286;-67
2022/06/10 09:37:57;;;;;;;18.80;14.37;;;;;;;25.17;87.60;98738.00;5089212;28;20302;-66
2022/06/10 09:40:39;;;;;;;14.87;13.30;;;;;;;24.97;86.97;98734.78;5088103;28;20195;-64
2022/06/10 09:43:44;;;;;;;17.17;14.03;;;;;;;24.84;89.93;98734.38;5087847;28;20226;-67
2022/06/10 09:46:48;;;;;;;19.63;14.83;;;;;;;24.95;89.24;98725.41;5085270;28;20202;-65
2022/06/10 09:49:29;;;;;;;15.97;14.00;;;;;;;25.23;89.20;98734.81;5083180;28;20237;-65
2022/06/10 09:52:10;;;;;;;15.10;13.57;;;;;;;25.37;87.65;98720.25;5088977;28;20207;-67
2022/06/10 09:55:03;;;;;;;17.70;13.30;;;;;;;25.54;85.20;98722.03;5089515;28;20208;-64
2022/06/10 09:57:55;;;;;;;15.17;13.30;;;;;;;25.72;85.45;98746.38;5084559;28;20204;-66
2022/06/10 10:00:29;;;;;;;15.63;13.17;;;;;;;25.57;83.22;98716.47;5085902;28;20200;-68
2022/06/10 10:03:10;;;;;;;13.70;12.20;;;;;;;25.68;83.31;98739.00;5086160;28;20211;-66
2022/06/10 10:06:01;;;;;;;15.33;13.80;;;;;;;25.51;83.90;98749.41;5087425;28;20230;-65
2022/06/10 10:08:33;;;;;;;14.00;12.60;;;;;;;25.38;83.51;98738.50;5088939;28;20206;-67
2022/06/10 10:11:08;;;;;;;16.67;13.30;;;;;;;25.38;83.89;98728.00;5088877;28;20210;-66
2022/06/10 10:13:52;;;;;;;19.00;13.13;;;;;;;25.50;84.88;98720.69;5086317;28;20576;-68
2022/06/10 10:16:32;;;;;;;14.53;12.97;;;;;;;25.60;83.21;98726.66;5085060;28;20199;-66
2022/06/10 10:19:20;;;;;;;14.20;12.33;;;;;;;25.75;83.18;98706.69;5084906;28;20230;-67
2022/06/10 10:21:55;;;;;;;14.83;12.83;;;;;;;26.08;84.72;98700.53;5085375;28;20198;-67
2022/06/10 10:24:25;;;;;;;11.40;10.40;;;;;;;26.15;80.44;98705.97;5085904;28;20652;-64
2022/06/10 10:26:54;;;;;;;12.37;11.00;;;;;;;26.21;81.32;98715.03;5087273;28;20199;-66
2022/06/10 10:29:24;;;;;;;11.17;10.30;;;;;;;26.23;79.79;98713.09;5087368;28;20987;-68
2022/06/10 10:31:59;;;;;;;13.63;12.37;;;;;;;25.95;80.73;98710.69;5090071;28;20213;-67
2022/06/10 10:34:29;;;;;;;12.07;10.97;;;;;;;25.93;80.34;98712.66;5088453;28;20709;-66
2022/06/10 10:37:00;;;;;;;11.50;10.60;;;;;;;25.99;80.04;98704.13;5088058;28;20264;-68
2022/06/10 10:39:32;;;;;;;13.30;12.07;;;;;;;26.11;83.25;98700.22;5089583;28;20195;-65
2022/06/10 10:42:03;;;;;;;15.30;13.70;;;;;;;26.01;83.65;98702.16;5089289;28;20214;-66
2022/06/10 10:44:42;;;;;;;14.20;12.80;;;;;;;26.01;82.92;98702.16;5091015;28;20731;-65
2022/06/10 10:47:24;;;;;;;14.33;13.03;;;;;;;26.10;82.35;98695.97;5089118;28;20270;-68
2022/06/10 10:49:54;;;;;;;13.67;12.47;;;;;;;26.04;82.94;98699.22;5091657;28;20199;-69
2022/06/10 10:52:29;;;;;;;16.30;13.43;;;;;;;26.26;84.07;98684.69;5090849;28;20226;-66
2022/06/10 10:55:00;;;;;;;12.97;11.70;;;;;;;26.56;83.92;98685.84;5090128;28;20206;-69
2022/06/10 10:57:32;;;;;;;14.03;12.73;;;;;;;26.54;80.56;98700.97;5089991;28;20203;-68
2022/06/10 11:00:09;;;;;;;13.27;12.00;;;;;;;26.20;79.68;98687.97;5092183;28;20211;-66
2022/06/10 11:02:41;;;;;;;13.27;12.13;;;;;;;26.24;82.17;98670.03;5091321;28;20222;-68
2022/06/10 11:05:31;;;;;;;14.07;12.67;;;;;;;26.45;81.59;98675.66;5091020;28;20279;-67
2022/06/10 11:08:28;;;;;;;14.63;12.90;;;;;;;26.63;81.97;98678.94;5090414;28;20611;-68
2022/06/10 11:11:19;;;;;;;13.47;12.13;;;;;;;26.69;80.04;98688.00;5086079;28;20208;-69
2022/06/10 11:13:53;;;;;;;14.80;13.47;;;;;;;26.58;81.31;98683.88;5089089;28;20678;-69
2022/06/10 11:16:43;;;;;;;14.13;12.73;;;;;;;26.67;79.70;98684.69;5090162;28;20210;-66
2022/06/10 11:19:21;;;;;;;13.27;12.10;;;;;;;26.71;77.77;98686.84;5087089;28;20291;-66
2022/06/10 11:21:51;;;;;;;14.23;11.27;;;;;;;26.72;78.91;98677.94;5088330;28;20206;-66
2022/06/10 11:24:23;;;;;;;13.20;11.80;;;;;;;26.78;78.28;98677.28;5088811;28;20326;-66
2022/06/10 11:26:53;;;;;;;13.13;11.90;;;;;;;26.72;78.57;98683.19;5090789;28;20264;-65
2022/06/10 11:29:21;;;;;;;14.57;12.83;;;;;;;26.63;77.87;98681.56;5092056;28;20211;-65
2022/06/10 11:31:52;;;;;;;12.67;11.43;;;;;;;26.56;78.98;98678.78;5091219;28;20213;-64
2022/06/10 11:34:23;;;;;;;14.47;11.57;;;;;;;26.47;78.29;98673.69;5091635;28;20668;-64
2022/06/10 11:36:52;;;;;;;12.97;11.97;;;;;;;26.30;78.86;98664.97;5091686;28;20218;-66
2022/06/10 11:39:22;;;;;;;11.93;10.70;;;;;;;26.44;77.65;98668.75;5091688;28;20195;-67
2022/06/10 11:42:07;;;;;;;13.37;12.07;;;;;;;26.44;79.70;98663.50;5091213;28;20203;-65
2022/06/10 11:44:39;;;;;;;12.47;11.43;;;;;;;26.25;77.86;98661.19;5091440;28;20721;-65
2022/06/10 11:47:14;;;;;;;13.50;11.80;;;;;;;26.16;78.91;98654.25;5090598;28;20714;-67